Patterson, New York
Current Conditions -  °F | °C
As of 8:53 AM on Sunday 21 Dec 2014 (Local Time) from KDXR Reporting Station
Haze Haze  
Wind Chill: 30°   Ceiling: 1700
Heat Index: 30°   Visibility: 5mi
Dew Point: 25°   Wind: 0mph
Humidity: 82%   Direction: NA
Pressure: 30.3"   Gusts: NA
Location:  41.51°N, 73.61°W
Report Text: KDXR 211353Z 00000KT 5SM HZ BKN017 OVC025 M01/M04 A3030 RMK AO2 SNB27E43 SLP263 P0000 T10111039
Loading
Personal Weather Stations






























Interactive Weather Map New forecast layout! Learn more

10-Day Weather Forecast

Advertisements
Track Severe Weather on mobile